This is the latest recevied weather packets stored in our database for station/object KR4ELZ. If no packets are shown the sender has not sent any weather packets the latest 10 day(s).
| Time | Temp. | Humidity | Pressure | Rain* | Wind** | Luminosity | Snow |
|---|---|---|---|---|---|---|---|
| 1777139241 | 23.89° C | 70% | 1009.8 hPa | 0 mm | - | 106 W/m² | - |
| 1777138939 | 24.44° C | 71% | 1009.8 hPa | 0 mm | - | 100 W/m² | - |
| 1777138635 | 23.89° C | 70% | 1009.8 hPa | 0 mm | - | 106 W/m² | - |
| 1777138330 | 24.44° C | 70% | 1009.8 hPa | 0 mm | - | 97 W/m² | - |
| 1777138027 | 25° C | 67% | 1009.8 hPa | 0 mm | - | 387 W/m² | - |
| 1777137722 | 25° C | 67% | 1009.7 hPa | 0 mm | - | 702 W/m² | - |
| 1777137419 | 25° C | 69% | 1009.9 hPa | 0 mm | - | 705 W/m² | - |
| 1777137115 | 23.33° C | 75% | 1009.7 hPa | 0 mm | - | 745 W/m² | - |
| 1777136813 | 23.33° C | 73% | 1009.9 hPa | 0 mm | - | 162 W/m² | - |
| 1777136510 | 25° C | 71% | 1009.9 hPa | 0 mm | - | 136 W/m² | - |
| 1777136207 | 23.89° C | 72% | 1009.9 hPa | 0 mm | - | 460 W/m² | - |
| 1777135904 | 23.33° C | 73% | 1010 hPa | 0 mm | - | 490 W/m² | - |
| 1777135599 | 23.33° C | 73% | 1010 hPa | 0 mm | - | 196 W/m² | - |
| 1777135296 | 23.33° C | 73% | 1010 hPa | 0 mm | - | 295 W/m² | - |
| 1777134993 | 23.33° C | 73% | 1010.2 hPa | 0 mm | - | 206 W/m² | - |
| 1777134690 | 22.22° C | 74% | 1010 hPa | 0 mm | - | 742 W/m² | - |
| 1777134386 | 22.78° C | 75% | 1010 hPa | 0 mm | - | 173 W/m² | - |
| 1777134083 | 22.22° C | 76% | 1010.2 hPa | 0 mm | - | 188 W/m² | - |
| 1777133779 | 22.22° C | 76% | 1010.1 hPa | 0 mm | - | 207 W/m² | - |
| 1777133475 | 22.22° C | 77% | 1009.9 hPa | 0 mm | - | 308 W/m² | - |
| 1777133175 | 22.22° C | 77% | 1009.9 hPa | 0 mm | - | 191 W/m² | - |
| 1777132870 | 22.78° C | 77% | 1010 hPa | 0 mm | - | 695 W/m² | - |
| 1777132566 | 21.67° C | 80% | 1009.7 hPa | 0 mm | - | 250 W/m² | - |
| 1777132263 | 21.11° C | 79% | 1009.8 hPa | 0 mm | - | 146 W/m² | - |
| 1777131959 | 21.11° C | 81% | 1009.9 hPa | 0 mm | - | 115 W/m² | - |
* Rain latest hour (hover to see other rain measurements)
** Current wind speed in m/s (hover to see current wind gust speed)